Latest Weather Observations for Edithburgh

IDS60801

Issued at 10:05 am CDT Thursday 23 October 2014 (issued every 30 minutes, with the page automatically refreshed every 10 minutes)

About weather observations | Map of weather stations | Latest weather observations for SA | Other Formats
Station Details ID: 022046 Name: EDITHBURGH Lat: -35.11 Lon: 137.74 Height: 6.0 m
Data from the previous 72 hours. | See also: Recent months at Edithburgh
Date/Time
CDT
Temp
°C
App
Temp
°C
Dew
Point
Rel
Hum
%
Delta-T
°C
Wind Press
QNH
hPa
Press
MSL
hPa
Rain
since 9 am
mm
Dir
 
Spd
km/h
Gust
km/h
Spd
kts
Gust
kts
23/10:00am 15.8 13.0 11.5 75 2.3 SSE 17 22 9 12 1018.3 1018.3 0.0
23/09:30am 15.5 13.2 11.6 77 2.1 SE 15 20 8 11 1018.6 1018.6 0.0
23/09:00am 15.5 13.1 11.4 76 2.2 SE 15 20 8 11 1018.5 1018.5 0.0
23/08:30am 15.2 13.2 11.5 78 2.0 SSE 13 22 7 12 1018.8 1018.8 0.0
23/08:00am 15.1 12.7 11.4 78 2.0 SSE 15 19 8 10 1018.6 1018.6 0.0
23/07:30am 14.8 12.0 11.4 80 1.8 SE 17 26 9 14 1018.6 1018.6 0.0
23/07:00am 14.8 11.1 11.6 81 1.7 SSE 22 32 12 17 1018.6 1018.6 0.0
23/06:30am 14.8 10.3 11.4 80 1.8 SSE 26 37 14 20 1018.3 1018.3 0.0
23/06:00am 14.8 10.0 11.6 81 1.7 SSE 28 35 15 19 1018.1 1018.1 0.0
23/05:30am 14.9 10.4 11.3 79 1.9 SSE 26 33 14 18 1018.3 1018.3 0.0
23/05:00am 14.9 10.8 11.5 80 1.8 SSE 24 33 13 18 1018.3 1018.3 0.0
23/04:30am 14.8 10.0 11.8 82 1.6 SSE 28 39 15 21 1018.3 1018.3 0.0
23/04:00am 14.8 10.5 12.2 84 1.4 SSE 26 37 14 20 1018.3 1018.3 0.0
23/03:30am 14.7 10.0 12.1 84 1.4 SSE 28 39 15 21 1018.6 1018.6 0.0
23/03:00am 14.5 10.3 12.3 87 1.2 SSE 26 35 14 19 1018.8 1018.8 0.0
23/02:30am 14.5 10.2 12.1 85 1.3 SSE 26 35 14 19 1019.0 1019.0 0.0
23/02:00am 14.5 10.5 11.9 84 1.4 SSE 24 35 13 19 1019.6 1019.6 0.0
23/01:30am 14.6 10.3 12.0 84 1.4 S 26 35 14 19 1019.9 1019.8 0.0
23/01:00am 14.6 10.3 12.2 85 1.3 S 26 33 14 18 1020.2 1020.1 0.0
23/12:30am 14.7 10.5 12.3 85 1.3 S 26 33 14 18 1020.5 1020.4 0.0
23/12:00am 14.8 10.7 12.6 87 1.2 SSE 26 35 14 19 1020.4 1020.3 0.0
 
Date/Time
CDT
Temp
°C
App
Temp
°C
Dew
Point
Rel
Hum
%
Delta-T
°C
Wind Press
QNH
hPa
Press
MSL
hPa
Rain
since 9 am
mm
Dir
 
Spd
km/h
Gust
km/h
Spd
kts
Gust
kts
22/11:30pm 14.7 10.0 11.9 83 1.5 SSE 28 37 15 20 1020.5 1020.4 0.0
22/11:00pm 14.7 10.0 11.9 83 1.5 SSE 28 39 15 21 1020.8 1020.7 0.0
22/10:30pm 15.0 11.1 12.2 83 1.5 S 24 35 13 19 1021.1 1021.0 0.0
22/10:00pm 15.1 10.4 12.0 82 1.7 S 28 39 15 21 1020.8 1020.7 0.0
22/09:30pm 15.0 11.0 11.8 81 1.7 S 24 33 13 18 1020.8 1020.7 0.0
22/09:00pm 15.3 11.0 12.2 82 1.7 S 26 39 14 21 1020.6 1020.5 0.0
22/08:30pm 15.4 10.4 12.3 82 1.7 S 30 39 16 21 1020.3 1020.2 0.0
22/08:00pm 15.4 10.7 12.1 81 1.8 S 28 41 15 22 1019.9 1019.8 0.0
22/07:30pm 15.6 11.4 12.5 82 1.7 S 26 39 14 21 1019.7 1019.7 0.0
22/07:00pm 15.6 11.5 12.7 83 1.6 S 26 39 14 21 1019.3 1019.3 0.0
22/06:30pm 15.8 11.4 12.9 83 1.6 S 28 41 15 22 1018.9 1018.9 0.0
22/06:00pm 16.6 12.3 13.2 80 1.9 S 28 41 15 22 1018.8 1018.8 0.0
22/05:30pm 17.2 12.5 13.3 78 2.2 S 30 41 16 22 1018.7 1018.7 0.0
22/05:00pm 17.5 12.8 13.2 76 2.4 S 30 41 16 22 1018.5 1018.5 0.0
22/04:30pm 18.4 14.2 13.5 73 2.8 S 28 37 15 20 1018.5 1018.5 0.0
22/04:00pm 18.5 14.6 13.4 72 2.9 S 26 35 14 19 1018.7 1018.7 0.0
22/03:30pm 18.6 13.6 13.3 71 3.0 S 32 39 17 21 1018.5 1018.5 0.0
22/03:00pm 19.1 14.4 13.1 68 3.4 S 30 41 16 22 1018.4 1018.4 0.0
22/02:30pm 19.8 15.9 13.3 66 3.7 S 26 35 14 19 1018.5 1018.5 0.0
22/02:00pm 19.2 14.6 13.4 69 3.3 S 30 39 16 21 1018.7 1018.7 0.0
22/01:30pm 19.7 14.6 13.2 66 3.7 S 32 44 17 24 1018.9 1018.9 0.0
22/01:00pm 19.8 14.6 13.3 66 3.7 S 33 43 18 23 1018.7 1018.7 0.0
22/12:30pm 20.4 15.4 13.4 64 4.0 S 32 41 17 22 1018.8 1018.8 0.0
22/12:00pm 20.7 16.8 13.3 62 4.2 S 26 35 14 19 1018.8 1018.8 0.0
22/11:30am 20.0 16.6 13.7 67 3.6 S 24 32 13 17 1018.7 1018.7 0.0
22/11:00am 19.5 15.4 13.7 69 3.3 SSW 28 35 15 19 1018.4 1018.4 0.0
22/10:30am 19.5 16.6 13.9 70 3.2 SSW 22 32 12 17 1018.4 1018.4 0.0
22/10:00am 18.8 15.2 14.1 74 2.7 S 26 37 14 20 1017.9 1017.9 0.0
22/09:30am 18.7 14.6 13.8 73 2.8 S 28 44 15 24 1017.6 1017.6 0.0
22/09:00am 18.7 15.4 14.0 74 2.7 S 24 33 13 18 1017.3 1017.3 0.0
22/08:30am 18.0 14.6 13.6 75 2.5 S 24 35 13 19 1017.1 1017.1 0.0
22/08:00am 17.8 14.4 13.6 76 2.4 S 24 32 13 17 1016.9 1016.9 0.0
22/07:30am 17.3 13.5 13.6 79 2.1 SSW 26 33 14 18 1016.7 1016.7 0.0
22/07:00am 16.8 12.9 13.4 80 1.9 SSW 26 35 14 19 1016.6 1016.6 0.0
22/06:30am 16.9 13.6 12.9 77 2.2 SSW 22 28 12 15 1016.2 1016.2 0.0
22/06:00am 17.1 13.8 12.8 76 2.4 SSW 22 30 12 16 1015.9 1015.9 0.0
22/05:30am 17.6 14.2 12.4 71 2.9 S 22 28 12 15 1015.7 1015.7 0.0
22/05:00am 17.9 14.3 11.7 67 3.4 SSW 22 32 12 17 1015.7 1015.7 0.0
22/04:30am 18.6 15.5 12.1 66 3.6 S 20 30 11 16 1015.3 1015.3 0.0
22/04:00am 19.8 16.7 10.3 54 5.1 S 17 20 9 11 1015.4 1015.4 0.0
22/03:30am 19.4 18.6 10.9 58 4.6 SSE 6 15 3 8 1015.4 1015.4 0.0
22/03:00am 19.2 17.2 11.6 61 4.2 SE 13 17 7 9 1014.4 1014.4 0.0
22/02:30am 19.0 17.8 11.5 61 4.1 S 9 13 5 7 1014.9 1014.9 0.0
22/02:00am 19.4 17.6 10.7 57 4.7 S 11 13 6 7 1015.0 1015.0 0.0
22/01:30am 19.6 17.2 11.4 59 4.5 SSE 15 20 8 11 1015.5 1015.5 0.0
22/01:00am 18.9 17.5 12.2 65 3.7 SSE 11 19 6 10 1015.8 1015.8 0.0
22/12:30am 19.4 16.4 11.8 61 4.2 SSE 19 24 10 13 1016.3 1016.3 0.0
22/12:00am 20.3 16.9 11.2 56 5.0 SSW 20 28 11 15 1017.1 1017.1 0.0
 
Date/Time
CDT
Temp
°C
App
Temp
°C
Dew
Point
Rel
Hum
%
Delta-T
°C
Wind Press
QNH
hPa
Press
MSL
hPa
Rain
since 9 am
mm
Dir
 
Spd
km/h
Gust
km/h
Spd
kts
Gust
kts
21/11:30pm 22.5 17.8 9.3 43 7.1 SSW 24 39 13 21 1017.5 1017.5 0.0
21/11:00pm 22.2 19.8 8.6 41 7.2 E 11 13 6 7 1016.0 1016.0 0.0
21/10:30pm 20.7 18.9 11.0 53 5.3 E 11 17 6 9 1016.3 1016.3 0.0
21/10:00pm 21.1 19.9 11.5 54 5.3 S 9 11 5 6 1016.2 1016.2 0.0
21/09:30pm 20.4 19.5 11.5 56 4.9 SSW 7 9 4 5 1016.4 1016.4 0.0
21/09:00pm 20.6 20.7 12.6 60 4.5 SW 4 6 2 3 1016.6 1016.6 0.0
21/08:30pm 22.7 21.8 11.2 48 6.4 S 7 19 4 10 1016.2 1016.2 0.0
21/08:00pm 21.5 22.1 14.3 63 4.2 S 4 4 2 2 1015.9 1015.9 0.0
21/07:30pm 22.9 22.8 13.2 54 5.6 S 6 6 3 3 1015.8 1015.8 0.0
21/07:00pm 24.7 23.1 11.4 43 7.5 W 11 17 6 9 1015.7 1015.7 0.0
21/06:30pm 25.9 25.0 10.7 38 8.5 E 6 9 3 5 1015.4 1015.4 0.0
21/06:00pm 27.5 27.2 11.6 37 9.1 SSE 4 6 2 3 1015.5 1015.5 0.0
21/05:30pm 29.5 27.9 8.9 27 11.4 S 7 11 4 6 1015.8 1015.8 0.0
21/05:00pm 31.2 29.5 5.7 20 13.5 SE 4 6 2 3 1015.7 1015.7 0.0
21/04:30pm 30.9 28.7 6.1 21 13.2 ENE 7 9 4 5 1015.6 1015.6 0.0
21/04:00pm 27.8 25.4 10.1 33 9.9 NE 13 19 7 10 1015.7 1015.7 0.0
21/03:30pm 28.9 26.2 9.0 28 11.0 ENE 13 19 7 10 1016.0 1016.0 0.0
21/03:00pm 28.7 25.8 9.7 30 10.6 NE 15 19 8 10 1016.3 1016.3 0.0
21/02:30pm 28.6 25.9 9.0 29 10.8 NE 13 19 7 10 1016.6 1016.6 0.0
21/02:00pm 26.8 24.7 11.1 37 8.9 NE 13 19 7 10 1017.2 1017.2 0.0
21/01:30pm 26.7 24.0 10.2 35 9.2 NE 15 19 8 10 1017.6 1017.6 0.0
21/01:00pm 25.6 24.5 10.8 39 8.3 NNE 7 11 4 6 1017.9 1017.9 0.0
21/12:30pm 24.9 23.4 10.5 40 8.0 NE 9 15 5 8 1018.3 1018.3 0.0
21/12:00pm 24.2 22.2 10.0 40 7.8 NE 11 15 6 8 1018.6 1018.6 0.0
21/11:30am 24.9 23.1 9.5 37 8.4 NNE 9 17 5 9 1019.0 1019.0 0.0
21/11:00am 25.6 23.0 9.5 36 8.8 NNE 13 20 7 11 1019.1 1019.1 0.0
21/10:30am 23.8 21.5 10.3 42 7.4 NNE 13 20 7 11 1019.1 1019.1 0.0
21/10:00am 22.9 20.3 10.7 46 6.7 NE 15 20 8 11 1019.3 1019.3 0.0
21/09:30am 22.3 19.4 10.9 48 6.3 NE 17 22 9 12 1019.2 1019.2 0.0
21/09:00am 22.2 19.6 10.7 48 6.3 NE 15 22 8 12 1019.2 1019.2 0.0
21/08:30am 21.4 17.2 9.9 48 6.2 NE 22 30 12 16 1019.0 1019.0 0.0
21/08:00am 21.2 17.2 10.3 49 5.9 ENE 22 26 12 14 1018.9 1018.9 0.0
21/07:30am 20.3 16.7 10.7 54 5.2 ENE 20 24 11 13 1018.7 1018.7 0.0
21/07:00am 19.6 15.9 10.1 54 5.1 ENE 20 26 11 14 1018.6 1018.6 0.0
21/06:30am 18.8 15.8 10.8 59 4.3 ENE 17 22 9 12 1018.4 1018.4 0.0
21/06:00am 19.4 16.3 10.3 55 4.9 NE 17 22 9 12 1018.2 1018.2 0.0
21/05:30am 19.4 16.9 10.9 58 4.6 NE 15 20 8 11 1018.0 1018.0 0.0
21/05:00am 19.0 17.4 11.7 62 4.0 NNE 11 17 6 9 1018.0 1018.0 0.0
21/04:30am 18.6 17.6 12.3 67 3.5 NNE 9 13 5 7 1018.1 1018.1 0.0
21/04:00am 17.9 17.5 13.1 73 2.7 NNE 7 11 4 6 1018.1 1018.1 0.0
21/03:30am 18.1 17.9 13.7 75 2.5 NNE 7 9 4 5 1018.1 1018.1 0.0
21/03:00am 16.6 16.7 13.8 83 1.6 NNE 6 7 3 4 1018.4 1018.4 0.0
21/02:30am 17.3 17.5 14.1 81 1.8 NE 6 7 3 4 1018.6 1018.6 0.0
21/02:00am 16.2 16.2 13.7 85 1.4 NE 6 6 3 3 1018.9 1018.9 0.0
21/01:30am 17.7 17.6 13.8 78 2.2 NNE 7 9 4 5 1019.4 1019.4 0.0
21/01:00am 18.1 17.1 12.3 69 3.2 ENE 9 15 5 8 1019.6 1019.6 0.0
21/12:30am 18.6 16.4 12.1 66 3.6 E 15 20 8 11 1019.9 1019.8 0.0
21/12:00am 18.9 16.7 12.0 64 3.8 E 15 19 8 10 1020.0 1019.9 0.0
 
Date/Time
CDT
Temp
°C
App
Temp
°C
Dew
Point
Rel
Hum
%
Delta-T
°C
Wind Press
QNH
hPa
Press
MSL
hPa
Rain
since 9 am
mm
Dir
 
Spd
km/h
Gust
km/h
Spd
kts
Gust
kts
20/11:30pm 18.8 16.6 12.1 65 3.7 ESE 15 20 8 11 1020.2 1020.1 0.0
20/11:00pm 18.8 16.4 12.5 67 3.5 ESE 17 20 9 11 1020.6 1020.5 0.0
20/10:30pm 19.2 16.2 12.0 63 4.0 ESE 19 22 10 12 1020.8 1020.7 0.0
20/10:00pm 19.4 16.4 11.8 61 4.2 ESE 19 26 10 14 1021.0 1020.9 0.0
20/09:30pm 19.1 15.9 12.0 63 3.9 ESE 20 28 11 15 1021.0 1020.9 0.0
20/09:00pm 18.7 16.0 12.8 68 3.3 ESE 19 24 10 13 1021.0 1020.9 0.0
20/08:30pm 18.3 16.4 13.1 71 2.9 SE 15 20 8 11 1020.8 1020.7 0.0
20/08:00pm 17.8 15.7 13.5 76 2.4 SE 17 24 9 13 1020.5 1020.4 0.0
20/07:30pm 18.1 15.6 13.5 74 2.6 SE 19 26 10 14 1020.3 1020.2 0.0
20/07:00pm 18.7 17.6 18.7 100 0.0 SE 22 28 12 15 1019.7 1019.7 0.0
20/06:30pm 19.6 18.9 19.6 100 0.0 SE 22 30 12 16 1019.7 1019.7 0.0
20/06:00pm 19.8 20.2 19.8 100 0.0 SSE 17 22 9 12 1020.0 1019.9 0.0
20/05:30pm 19.7 19.7 19.7 100 0.0 S 19 24 10 13 1020.1 1020.0 0.0
20/05:00pm 19.6 19.5 19.6 100 0.0 S 19 26 10 14 1020.3 1020.2 0.0
20/04:30pm 20.1 20.0 19.9 99 0.1 S 20 28 11 15 1020.5 1020.4 0.0
20/04:00pm 20.6 20.7 20.4 99 0.1 S 20 28 11 15 1020.8 1020.7 0.0
20/03:30pm 19.7 19.1 19.7 100 0.0 S 22 28 12 15 1021.1 1021.0 0.0
20/03:00pm 20.6 20.9 20.3 98 0.2 SSE 19 24 10 13 1021.4 1021.3 0.0
20/02:30pm 20.7 21.0 20.7 100 0.0 SSE 20 26 11 14 1022.0 1021.9 0.0
20/02:00pm 20.6 20.7 20.4 99 0.1 SE 20 28 11 15 1022.5 1022.4 0.0
20/01:30pm 20.2 20.2 20.2 100 0.0 SE 20 26 11 14 1022.8 1022.7 0.0
20/01:00pm 20.2 20.2 20.2 100 0.0 SE 20 24 11 13 1023.0 1022.9 0.0
20/12:30pm 19.7 19.6 19.5 99 0.1 SE 19 24 10 13 1023.4 1023.3 0.0
20/12:00pm 19.8 19.4 19.3 97 0.3 ESE 20 24 11 13 1023.7 1023.6 0.0
20/11:30am 18.8 17.8 18.8 100 0.0 ESE 22 30 12 16 1023.9 1023.8 0.0
20/11:00am 18.5 16.9 18.3 99 0.1 ESE 24 32 13 17 1024.2 1024.1 0.0
20/10:30am 17.8 15.5 17.6 99 0.1 ESE 26 33 14 18 1024.4 1024.3 0.0

Other Formats:

Comma delimited format used in spreadsheet applications
http://www.bom.gov.au/fwo/IDS60801/IDS60801.94809.axf

JavaScript Object Notation format (JSON) in row-major order
http://www.bom.gov.au/fwo/IDS60801/IDS60801.94809.json